sensor_id;sensor_type;location;lat;lon;timestamp;pressure;altitude;pressure_sealevel;temperature;humidity
36512;BME280;74090;46.796;9.822;2023-11-21T00:00:09;83955.99;;;13.77;22.79
36512;BME280;74090;46.796;9.822;2023-11-21T00:02:36;83953.51;;;13.50;22.92
36512;BME280;74090;46.796;9.822;2023-11-21T00:05:04;83955.40;;;13.79;22.69
36512;BME280;74090;46.796;9.822;2023-11-21T00:07:31;83952.58;;;13.41;22.70
36512;BME280;74090;46.796;9.822;2023-11-21T00:09:58;83948.97;;;13.98;22.93
36512;BME280;74090;46.796;9.822;2023-11-21T00:12:24;83946.93;;;13.68;22.83
36512;BME280;74090;46.796;9.822;2023-11-21T00:14:51;83943.96;;;13.63;22.75
36512;BME280;74090;46.796;9.822;2023-11-21T00:17:19;83940.59;;;13.37;22.83
36512;BME280;74090;46.796;9.822;2023-11-21T00:19:46;83936.92;;;13.48;22.64
36512;BME280;74090;46.796;9.822;2023-11-21T00:22:13;83936.07;;;14.37;22.35
36512;BME280;74090;46.796;9.822;2023-11-21T00:24:41;83933.78;;;14.09;22.31
36512;BME280;74090;46.796;9.822;2023-11-21T00:27:08;83931.79;;;13.26;22.70
36512;BME280;74090;46.796;9.822;2023-11-21T00:29:35;83929.32;;;12.89;23.18
36512;BME280;74090;46.796;9.822;2023-11-21T00:32:04;83928.71;;;13.27;22.87
36512;BME280;74090;46.796;9.822;2023-11-21T00:34:31;83930.52;;;13.18;23.01
36512;BME280;74090;46.796;9.822;2023-11-21T00:36:59;83932.68;;;13.17;23.18
36512;BME280;74090;46.796;9.822;2023-11-21T00:39:26;83926.42;;;12.95;23.18
36512;BME280;74090;46.796;9.822;2023-11-21T00:41:53;83924.43;;;13.19;23.05
36512;BME280;74090;46.796;9.822;2023-11-21T00:44:20;83920.84;;;13.47;22.98
36512;BME280;74090;46.796;9.822;2023-11-21T00:46:48;83923.15;;;13.99;22.58
36512;BME280;74090;46.796;9.822;2023-11-21T00:49:14;83922.96;;;13.66;22.76
36512;BME280;74090;46.796;9.822;2023-11-21T00:51:41;83927.23;;;13.76;22.77
36512;BME280;74090;46.796;9.822;2023-11-21T00:54:09;83933.17;;;14.04;22.49
36512;BME280;74090;46.796;9.822;2023-11-21T00:56:37;83934.13;;;13.62;22.53
36512;BME280;74090;46.796;9.822;2023-11-21T00:59:04;83934.67;;;14.16;22.21
36512;BME280;74090;46.796;9.822;2023-11-21T01:01:32;83936.52;;;14.29;22.38
36512;BME280;74090;46.796;9.822;2023-11-21T01:03:59;83936.77;;;13.64;22.72
36512;BME280;74090;46.796;9.822;2023-11-21T01:06:27;83932.17;;;13.59;22.77
36512;BME280;74090;46.796;9.822;2023-11-21T01:08:55;83930.54;;;13.87;22.57
36512;BME280;74090;46.796;9.822;2023-11-21T01:11:23;83930.99;;;13.50;22.76
36512;BME280;74090;46.796;9.822;2023-11-21T01:13:51;83930.28;;;13.95;22.77
36512;BME280;74090;46.796;9.822;2023-11-21T01:16:19;83930.14;;;14.45;22.23
36512;BME280;74090;46.796;9.822;2023-11-21T01:18:47;83929.87;;;13.60;22.40
36512;BME280;74090;46.796;9.822;2023-11-21T01:21:15;83931.56;;;14.10;22.38
36512;BME280;74090;46.796;9.822;2023-11-21T01:23:43;83931.55;;;13.42;22.78
36512;BME280;74090;46.796;9.822;2023-11-21T01:26:12;83931.62;;;13.59;22.71
36512;BME280;74090;46.796;9.822;2023-11-21T01:28:40;83931.62;;;14.08;22.37
36512;BME280;74090;46.796;9.822;2023-11-21T01:31:13;83928.39;;;13.50;22.79
36512;BME280;74090;46.796;9.822;2023-11-21T01:33:41;83927.65;;;13.23;22.94
36512;BME280;74090;46.796;9.822;2023-11-21T01:36:13;83922.76;;;13.25;23.00
36512;BME280;74090;46.796;9.822;2023-11-21T01:38:42;83921.03;;;14.15;22.73
36512;BME280;74090;46.796;9.822;2023-11-21T01:41:10;83915.20;;;12.86;23.13
36512;BME280;74090;46.796;9.822;2023-11-21T01:43:38;83916.29;;;13.40;22.85
36512;BME280;74090;46.796;9.822;2023-11-21T01:46:06;83913.06;;;14.35;22.25
36512;BME280;74090;46.796;9.822;2023-11-21T01:48:36;83911.70;;;14.08;22.45
36512;BME280;74090;46.796;9.822;2023-11-21T01:51:04;83912.88;;;14.51;22.11
36512;BME280;74090;46.796;9.822;2023-11-21T01:53:32;83915.41;;;13.94;22.30
36512;BME280;74090;46.796;9.822;2023-11-21T01:56:01;83916.04;;;13.07;22.64
36512;BME280;74090;46.796;9.822;2023-11-21T01:58:30;83916.16;;;13.69;22.62
36512;BME280;74090;46.796;9.822;2023-11-21T02:00:59;83921.73;;;13.93;22.37
36512;BME280;74090;46.796;9.822;2023-11-21T02:03:28;83921.73;;;13.82;22.59
36512;BME280;74090;46.796;9.822;2023-11-21T02:05:56;83919.90;;;13.98;22.30
36512;BME280;74090;46.796;9.822;2023-11-21T02:08:24;83914.71;;;14.26;21.92
36512;BME280;74090;46.796;9.822;2023-11-21T02:10:51;83911.27;;;14.23;22.15
36512;BME280;74090;46.796;9.822;2023-11-21T02:13:19;83906.85;;;13.11;22.30
36512;BME280;74090;46.796;9.822;2023-11-21T02:15:47;83902.01;;;13.90;22.19
36512;BME280;74090;46.796;9.822;2023-11-21T02:18:15;83901.97;;;13.88;22.42
36512;BME280;74090;46.796;9.822;2023-11-21T02:20:43;83895.92;;;12.89;22.69
36512;BME280;74090;46.796;9.822;2023-11-21T02:23:10;83889.38;;;13.05;22.96
36512;BME280;74090;46.796;9.822;2023-11-21T02:25:38;83886.88;;;13.48;22.61
36512;BME280;74090;46.796;9.822;2023-11-21T02:28:06;83882.42;;;13.12;22.88
36512;BME280;74090;46.796;9.822;2023-11-21T02:30:35;83882.77;;;13.19;22.78
36512;BME280;74090;46.796;9.822;2023-11-21T02:33:04;83884.94;;;13.34;22.62
36512;BME280;74090;46.796;9.822;2023-11-21T02:35:32;83884.12;;;13.36;23.07
36512;BME280;74090;46.796;9.822;2023-11-21T02:38:00;83887.86;;;13.14;22.81
36512;BME280;74090;46.796;9.822;2023-11-21T02:40:29;83884.11;;;13.00;22.84
36512;BME280;74090;46.796;9.822;2023-11-21T02:42:57;83883.74;;;13.03;22.82
36512;BME280;74090;46.796;9.822;2023-11-21T02:45:26;83879.45;;;13.37;22.68
36512;BME280;74090;46.796;9.822;2023-11-21T02:47:54;83876.70;;;13.30;22.48
36512;BME280;74090;46.796;9.822;2023-11-21T02:50:23;83873.31;;;14.52;21.98
36512;BME280;74090;46.796;9.822;2023-11-21T02:52:51;83872.69;;;14.08;21.84
36512;BME280;74090;46.796;9.822;2023-11-21T02:55:21;83868.36;;;13.76;22.35
36512;BME280;74090;46.796;9.822;2023-11-21T02:57:49;83869.42;;;13.39;22.44
36512;BME280;74090;46.796;9.822;2023-11-21T03:00:18;83863.56;;;13.56;22.48
36512;BME280;74090;46.796;9.822;2023-11-21T03:02:46;83856.41;;;13.76;22.32
36512;BME280;74090;46.796;9.822;2023-11-21T03:05:14;83854.59;;;13.49;22.50
36512;BME280;74090;46.796;9.822;2023-11-21T03:07:43;83858.02;;;13.28;22.64
36512;BME280;74090;46.796;9.822;2023-11-21T03:10:12;83855.04;;;13.66;22.37
36512;BME280;74090;46.796;9.822;2023-11-21T03:12:40;83854.31;;;13.73;22.33
36512;BME280;74090;46.796;9.822;2023-11-21T03:15:10;83854.71;;;13.99;22.24
36512;BME280;74090;46.796;9.822;2023-11-21T03:17:38;83856.68;;;14.14;22.13
36512;BME280;74090;46.796;9.822;2023-11-21T03:20:07;83858.15;;;13.50;22.23
36512;BME280;74090;46.796;9.822;2023-11-21T03:22:37;83858.38;;;13.49;22.31
36512;BME280;74090;46.796;9.822;2023-11-21T03:25:07;83860.54;;;13.39;22.21
36512;BME280;74090;46.796;9.822;2023-11-21T03:27:35;83860.79;;;13.36;22.22
36512;BME280;74090;46.796;9.822;2023-11-21T03:30:04;83860.74;;;13.39;22.54
36512;BME280;74090;46.796;9.822;2023-11-21T03:32:34;83859.89;;;13.39;22.42
36512;BME280;74090;46.796;9.822;2023-11-21T03:35:03;83854.50;;;13.44;22.53
36512;BME280;74090;46.796;9.822;2023-11-21T03:37:31;83858.88;;;13.10;22.58
36512;BME280;74090;46.796;9.822;2023-11-21T03:39:59;83857.34;;;13.01;22.64
36512;BME280;74090;46.796;9.822;2023-11-21T03:42:28;83858.78;;;13.21;22.59
36512;BME280;74090;46.796;9.822;2023-11-21T03:44:56;83858.00;;;12.56;22.76
36512;BME280;74090;46.796;9.822;2023-11-21T03:47:25;83863.31;;;13.72;22.26
36512;BME280;74090;46.796;9.822;2023-11-21T03:49:53;83864.01;;;13.28;22.42
36512;BME280;74090;46.796;9.822;2023-11-21T03:52:20;83862.47;;;13.66;22.24
36512;BME280;74090;46.796;9.822;2023-11-21T03:54:48;83855.29;;;13.54;22.34
36512;BME280;74090;46.796;9.822;2023-11-21T03:57:16;83856.84;;;13.70;21.91
36512;BME280;74090;46.796;9.822;2023-11-21T03:59:43;83857.76;;;13.54;22.29
36512;BME280;74090;46.796;9.822;2023-11-21T04:02:11;83850.05;;;13.61;22.08
36512;BME280;74090;46.796;9.822;2023-11-21T04:04:38;83843.88;;;13.70;21.93
36512;BME280;74090;46.796;9.822;2023-11-21T04:07:06;83845.25;;;13.50;22.27
36512;BME280;74090;46.796;9.822;2023-11-21T04:09:34;83846.90;;;13.13;22.61
36512;BME280;74090;46.796;9.822;2023-11-21T04:12:01;83839.30;;;13.38;22.46
36512;BME280;74090;46.796;9.822;2023-11-21T04:14:29;83840.28;;;13.89;22.07
36512;BME280;74090;46.796;9.822;2023-11-21T04:16:57;83838.83;;;13.50;22.07
36512;BME280;74090;46.796;9.822;2023-11-21T04:19:24;83846.07;;;13.09;22.37
36512;BME280;74090;46.796;9.822;2023-11-21T04:21:52;83843.42;;;14.34;21.93
36512;BME280;74090;46.796;9.822;2023-11-21T04:24:19;83842.31;;;13.63;22.19
36512;BME280;74090;46.796;9.822;2023-11-21T04:26:47;83848.98;;;13.26;22.18
36512;BME280;74090;46.796;9.822;2023-11-21T04:29:14;83852.85;;;13.95;21.98
36512;BME280;74090;46.796;9.822;2023-11-21T04:31:42;83851.31;;;13.39;22.32
36512;BME280;74090;46.796;9.822;2023-11-21T04:34:10;83850.12;;;13.22;22.35
36512;BME280;74090;46.796;9.822;2023-11-21T04:36:37;83852.01;;;13.07;22.64
36512;BME280;74090;46.796;9.822;2023-11-21T04:39:05;83851.41;;;14.19;21.69
36512;BME280;74090;46.796;9.822;2023-11-21T04:41:32;83852.92;;;13.41;22.02
36512;BME280;74090;46.796;9.822;2023-11-21T04:44:00;83854.39;;;13.50;22.17
36512;BME280;74090;46.796;9.822;2023-11-21T04:46:27;83853.48;;;12.53;22.39
36512;BME280;74090;46.796;9.822;2023-11-21T04:48:55;83856.63;;;12.86;22.61
36512;BME280;74090;46.796;9.822;2023-11-21T04:51:23;83861.26;;;12.69;22.77
36512;BME280;74090;46.796;9.822;2023-11-21T04:53:51;83861.37;;;12.87;22.65
36512;BME280;74090;46.796;9.822;2023-11-21T04:56:20;83872.66;;;13.44;22.19
36512;BME280;74090;46.796;9.822;2023-11-21T04:58:48;83875.84;;;13.32;22.31
36512;BME280;74090;46.796;9.822;2023-11-21T05:01:16;83874.47;;;13.10;22.21
36512;BME280;74090;46.796;9.822;2023-11-21T05:03:44;83873.61;;;13.86;21.97
36512;BME280;74090;46.796;9.822;2023-11-21T05:06:11;83876.98;;;13.60;22.38
36512;BME280;74090;46.796;9.822;2023-11-21T05:08:39;83880.22;;;13.10;22.33
36512;BME280;74090;46.796;9.822;2023-11-21T05:11:06;83882.88;;;13.16;22.30
36512;BME280;74090;46.796;9.822;2023-11-21T05:13:34;83881.03;;;14.65;22.18
36512;BME280;74090;46.796;9.822;2023-11-21T05:16:02;83883.91;;;13.30;22.11
36512;BME280;74090;46.796;9.822;2023-11-21T05:18:30;83884.05;;;13.39;22.39
36512;BME280;74090;46.796;9.822;2023-11-21T05:20:58;83886.60;;;12.69;22.53
36512;BME280;74090;46.796;9.822;2023-11-21T05:23:25;83885.87;;;12.84;22.44
36512;BME280;74090;46.796;9.822;2023-11-21T05:25:53;83886.30;;;13.45;22.33
36512;BME280;74090;46.796;9.822;2023-11-21T05:28:20;83884.91;;;13.07;22.34
36512;BME280;74090;46.796;9.822;2023-11-21T05:30:47;83885.82;;;13.48;22.14
36512;BME280;74090;46.796;9.822;2023-11-21T05:33:15;83883.74;;;13.30;22.14
36512;BME280;74090;46.796;9.822;2023-11-21T05:35:42;83886.56;;;13.60;21.95
36512;BME280;74090;46.796;9.822;2023-11-21T05:38:10;83883.71;;;13.31;22.05
36512;BME280;74090;46.796;9.822;2023-11-21T05:40:38;83882.24;;;13.10;22.21
36512;BME280;74090;46.796;9.822;2023-11-21T05:43:06;83878.83;;;13.50;22.30
36512;BME280;74090;46.796;9.822;2023-11-21T05:45:33;83875.14;;;13.14;22.24
36512;BME280;74090;46.796;9.822;2023-11-21T05:48:01;83873.70;;;13.22;22.25
36512;BME280;74090;46.796;9.822;2023-11-21T05:50:28;83874.66;;;13.41;22.52
36512;BME280;74090;46.796;9.822;2023-11-21T05:52:56;83874.91;;;13.04;22.41
36512;BME280;74090;46.796;9.822;2023-11-21T05:55:24;83878.89;;;12.62;22.44
36512;BME280;74090;46.796;9.822;2023-11-21T05:57:51;83876.05;;;13.21;22.41
36512;BME280;74090;46.796;9.822;2023-11-21T06:00:19;83873.42;;;13.16;22.35
36512;BME280;74090;46.796;9.822;2023-11-21T06:02:47;83872.45;;;11.71;22.90
36512;BME280;74090;46.796;9.822;2023-11-21T06:05:14;83880.05;;;11.75;23.34
36512;BME280;74090;46.796;9.822;2023-11-21T06:07:42;83879.27;;;12.06;23.32
36512;BME280;74090;46.796;9.822;2023-11-21T06:10:11;83874.91;;;12.06;23.51
36512;BME280;74090;46.796;9.822;2023-11-21T06:12:39;83874.61;;;11.51;23.13
36512;BME280;74090;46.796;9.822;2023-11-21T06:15:08;83875.34;;;12.27;23.16
36512;BME280;74090;46.796;9.822;2023-11-21T06:17:36;83875.72;;;11.42;23.39
36512;BME280;74090;46.796;9.822;2023-11-21T06:20:04;83882.23;;;11.19;23.36
36512;BME280;74090;46.796;9.822;2023-11-21T06:22:31;83886.15;;;12.04;23.25
36512;BME280;74090;46.796;9.822;2023-11-21T06:24:58;83886.81;;;12.52;23.06
36512;BME280;74090;46.796;9.822;2023-11-21T06:27:25;83890.67;;;12.89;22.91
36512;BME280;74090;46.796;9.822;2023-11-21T06:29:52;83890.35;;;13.04;23.02
36512;BME280;74090;46.796;9.822;2023-11-21T06:32:20;83889.73;;;14.08;23.50
36512;BME280;74090;46.796;9.822;2023-11-21T06:34:47;83891.07;;;13.80;23.72
36512;BME280;74090;46.796;9.822;2023-11-21T06:37:15;83885.52;;;13.44;23.82
36512;BME280;74090;46.796;9.822;2023-11-21T06:39:43;83885.13;;;13.46;23.86
36512;BME280;74090;46.796;9.822;2023-11-21T06:42:10;83883.38;;;13.20;24.78
36512;BME280;74090;46.796;9.822;2023-11-21T06:44:38;83881.70;;;13.80;24.91
36512;BME280;74090;46.796;9.822;2023-11-21T06:47:05;83884.92;;;13.40;25.01
36512;BME280;74090;46.796;9.822;2023-11-21T06:49:33;83886.13;;;13.41;25.32
36512;BME280;74090;46.796;9.822;2023-11-21T06:52:00;83889.02;;;14.22;24.80
36512;BME280;74090;46.796;9.822;2023-11-21T06:54:27;83887.97;;;13.42;24.53
36512;BME280;74090;46.796;9.822;2023-11-21T06:56:55;83888.68;;;13.65;25.28
36512;BME280;74090;46.796;9.822;2023-11-21T06:59:22;83888.67;;;14.51;25.09
36512;BME280;74090;46.796;9.822;2023-11-21T07:01:49;83889.14;;;14.39;25.33
36512;BME280;74090;46.796;9.822;2023-11-21T07:04:17;83889.79;;;14.63;25.42
36512;BME280;74090;46.796;9.822;2023-11-21T07:06:45;83887.23;;;13.43;25.40
36512;BME280;74090;46.796;9.822;2023-11-21T07:09:12;83887.46;;;14.24;25.41
36512;BME280;74090;46.796;9.822;2023-11-21T07:11:40;83886.47;;;14.06;25.14
36512;BME280;74090;46.796;9.822;2023-11-21T07:14:06;83886.44;;;13.66;24.11
36512;BME280;74090;46.796;9.822;2023-11-21T07:16:34;83891.41;;;13.57;24.10
36512;BME280;74090;46.796;9.822;2023-11-21T07:19:01;83897.36;;;13.19;22.37
36512;BME280;74090;46.796;9.822;2023-11-21T07:21:29;83896.90;;;12.72;22.20
36512;BME280;74090;46.796;9.822;2023-11-21T07:23:56;83898.57;;;13.93;21.57
36512;BME280;74090;46.796;9.822;2023-11-21T07:26:23;83899.28;;;13.88;22.43
36512;BME280;74090;46.796;9.822;2023-11-21T07:28:51;83899.27;;;12.42;23.18
36512;BME280;74090;46.796;9.822;2023-11-21T07:31:20;83901.37;;;14.47;22.24
36512;BME280;74090;46.796;9.822;2023-11-21T07:33:48;83901.20;;;12.73;23.26
36512;BME280;74090;46.796;9.822;2023-11-21T07:36:15;83901.48;;;13.31;23.20
36512;BME280;74090;46.796;9.822;2023-11-21T07:38:43;83901.50;;;13.22;23.57
36512;BME280;74090;46.796;9.822;2023-11-21T07:41:10;83904.75;;;13.10;24.06
36512;BME280;74090;46.796;9.822;2023-11-21T07:43:37;83906.01;;;12.50;24.35
36512;BME280;74090;46.796;9.822;2023-11-21T07:46:04;83903.51;;;12.86;24.00
36512;BME280;74090;46.796;9.822;2023-11-21T07:48:32;83904.23;;;12.44;23.98
36512;BME280;74090;46.796;9.822;2023-11-21T07:51:01;83906.07;;;12.37;24.34
36512;BME280;74090;46.796;9.822;2023-11-21T07:53:29;83902.52;;;12.32;24.51
36512;BME280;74090;46.796;9.822;2023-11-21T07:55:58;83906.66;;;12.05;24.99
36512;BME280;74090;46.796;9.822;2023-11-21T07:58:25;83905.10;;;13.15;24.44
36512;BME280;74090;46.796;9.822;2023-11-21T08:00:52;83907.68;;;13.55;24.57
36512;BME280;74090;46.796;9.822;2023-11-21T08:03:19;83917.15;;;14.26;24.51
36512;BME280;74090;46.796;9.822;2023-11-21T08:05:47;83921.74;;;13.17;23.52
36512;BME280;74090;46.796;9.822;2023-11-21T08:08:14;83923.99;;;12.47;22.74
36512;BME280;74090;46.796;9.822;2023-11-21T08:10:41;83917.18;;;12.42;21.86
36512;BME280;74090;46.796;9.822;2023-11-21T08:13:13;83916.76;;;12.87;20.61
36512;BME280;74090;46.796;9.822;2023-11-21T08:15:40;83915.92;;;9.57;21.46
36512;BME280;74090;46.796;9.822;2023-11-21T08:18:06;83912.93;;;8.65;21.93
36512;BME280;74090;46.796;9.822;2023-11-21T08:20:34;83916.64;;;9.69;21.93
36512;BME280;74090;46.796;9.822;2023-11-21T08:23:02;83916.16;;;11.76;21.63
36512;BME280;74090;46.796;9.822;2023-11-21T08:25:29;83912.01;;;11.32;21.44
36512;BME280;74090;46.796;9.822;2023-11-21T08:27:56;83913.29;;;10.52;23.71
36512;BME280;74090;46.796;9.822;2023-11-21T08:30:23;83913.76;;;11.77;23.37
36512;BME280;74090;46.796;9.822;2023-11-21T08:32:50;83915.54;;;11.88;24.12
36512;BME280;74090;46.796;9.822;2023-11-21T08:35:17;83921.75;;;11.69;24.04
36512;BME280;74090;46.796;9.822;2023-11-21T08:37:45;83915.65;;;12.07;24.04
36512;BME280;74090;46.796;9.822;2023-11-21T08:40:13;83912.52;;;12.37;23.75
36512;BME280;74090;46.796;9.822;2023-11-21T08:42:40;83910.33;;;13.41;23.77
36512;BME280;74090;46.796;9.822;2023-11-21T08:45:09;83908.94;;;12.44;24.26
36512;BME280;74090;46.796;9.822;2023-11-21T08:47:36;83910.68;;;12.90;24.60
36512;BME280;74090;46.796;9.822;2023-11-21T08:50:03;83908.45;;;12.92;24.26
36512;BME280;74090;46.796;9.822;2023-11-21T08:52:31;83909.02;;;13.05;25.09
36512;BME280;74090;46.796;9.822;2023-11-21T08:54:57;83903.59;;;13.27;24.80
36512;BME280;74090;46.796;9.822;2023-11-21T08:57:24;83905.94;;;13.48;24.60
36512;BME280;74090;46.796;9.822;2023-11-21T08:59:51;83904.03;;;13.96;23.85
36512;BME280;74090;46.796;9.822;2023-11-21T09:02:18;83900.52;;;13.88;23.89
36512;BME280;74090;46.796;9.822;2023-11-21T09:04:45;83899.73;;;14.14;23.40
36512;BME280;74090;46.796;9.822;2023-11-21T09:07:12;83900.97;;;13.86;23.67
36512;BME280;74090;46.796;9.822;2023-11-21T09:09:40;83903.34;;;13.75;23.60
36512;BME280;74090;46.796;9.822;2023-11-21T09:12:07;83903.70;;;14.38;23.52
36512;BME280;74090;46.796;9.822;2023-11-21T09:14:36;83904.17;;;13.94;23.20
36512;BME280;74090;46.796;9.822;2023-11-21T09:17:03;83905.90;;;14.63;22.97
36512;BME280;74090;46.796;9.822;2023-11-21T09:19:30;83910.81;;;14.85;23.18
36512;BME280;74090;46.796;9.822;2023-11-21T09:21:57;83908.73;;;14.08;22.77
36512;BME280;74090;46.796;9.822;2023-11-21T09:24:24;83913.73;;;14.68;23.02
36512;BME280;74090;46.796;9.822;2023-11-21T09:26:50;83911.00;;;14.79;22.59
36512;BME280;74090;46.796;9.822;2023-11-21T09:29:17;83912.32;;;14.96;22.87
36512;BME280;74090;46.796;9.822;2023-11-21T09:31:44;83912.30;;;15.09;22.67
36512;BME280;74090;46.796;9.822;2023-11-21T09:34:12;83912.46;;;14.93;22.59
36512;BME280;74090;46.796;9.822;2023-11-21T09:36:40;83914.33;;;14.88;22.85
36512;BME280;74090;46.796;9.822;2023-11-21T09:39:09;83913.76;;;15.63;22.62
36512;BME280;74090;46.796;9.822;2023-11-21T09:41:44;83915.60;;;15.13;22.99
36512;BME280;74090;46.796;9.822;2023-11-21T09:44:15;83912.98;;;14.79;22.68
36512;BME280;74090;46.796;9.822;2023-11-21T09:46:47;83914.20;;;15.59;22.50
36512;BME280;74090;46.796;9.822;2023-11-21T09:49:18;83917.38;;;15.23;22.30
36512;BME280;74090;46.796;9.822;2023-11-21T09:51:50;83920.00;;;15.19;23.05
36512;BME280;74090;46.796;9.822;2023-11-21T09:54:21;83917.90;;;15.21;22.70
36512;BME280;74090;46.796;9.822;2023-11-21T09:56:49;83913.00;;;14.80;23.16
36512;BME280;74090;46.796;9.822;2023-11-21T09:59:18;83909.14;;;15.99;20.00
36512;BME280;74090;46.796;9.822;2023-11-21T10:01:45;83905.31;;;16.89;18.24
36512;BME280;74090;46.796;9.822;2023-11-21T10:04:14;83901.83;;;16.86;17.72
36512;BME280;74090;46.796;9.822;2023-11-21T10:06:42;83902.50;;;15.94;17.36
36512;BME280;74090;46.796;9.822;2023-11-21T10:09:10;83899.22;;;14.09;18.57
36512;BME280;74090;46.796;9.822;2023-11-21T10:11:40;83898.43;;;16.06;18.55
36512;BME280;74090;46.796;9.822;2023-11-21T10:14:10;83900.25;;;13.98;19.44
36512;BME280;74090;46.796;9.822;2023-11-21T10:16:38;83900.81;;;15.34;18.95
36512;BME280;74090;46.796;9.822;2023-11-21T10:19:14;83901.86;;;15.02;19.25
36512;BME280;74090;46.796;9.822;2023-11-21T10:21:42;83903.71;;;13.88;20.03
36512;BME280;74090;46.796;9.822;2023-11-21T10:24:10;83902.52;;;14.34;19.76
36512;BME280;74090;46.796;9.822;2023-11-21T10:26:39;83898.99;;;14.54;19.63
36512;BME280;74090;46.796;9.822;2023-11-21T10:29:07;83895.09;;;15.55;18.96
36512;BME280;74090;46.796;9.822;2023-11-21T10:31:35;83891.46;;;13.07;20.09
36512;BME280;74090;46.796;9.822;2023-11-21T10:34:19;83888.06;;;13.77;20.39
36512;BME280;74090;46.796;9.822;2023-11-21T10:36:47;83885.70;;;13.11;20.59
36512;BME280;74090;46.796;9.822;2023-11-21T10:39:16;83883.83;;;14.26;19.47
36512;BME280;74090;46.796;9.822;2023-11-21T10:41:44;83883.74;;;15.99;18.61
36512;BME280;74090;46.796;9.822;2023-11-21T10:44:13;83883.69;;;14.04;19.79
36512;BME280;74090;46.796;9.822;2023-11-21T10:46:41;83884.29;;;12.42;20.74
36512;BME280;74090;46.796;9.822;2023-11-21T10:49:14;83881.99;;;13.30;19.72
36512;BME280;74090;46.796;9.822;2023-11-21T10:51:44;83880.69;;;13.30;20.33
36512;BME280;74090;46.796;9.822;2023-11-21T10:54:11;83878.42;;;13.21;21.75
36512;BME280;74090;46.796;9.822;2023-11-21T10:56:40;83880.30;;;13.07;22.14
36512;BME280;74090;46.796;9.822;2023-11-21T10:59:10;83883.32;;;13.12;21.81
36512;BME280;74090;46.796;9.822;2023-11-21T11:01:39;83885.70;;;13.95;21.86
36512;BME280;74090;46.796;9.822;2023-11-21T11:04:07;83881.10;;;12.57;22.06
36512;BME280;74090;46.796;9.822;2023-11-21T11:06:35;83880.15;;;12.76;22.03
36512;BME280;74090;46.796;9.822;2023-11-21T11:09:03;83879.07;;;12.82;22.05
36512;BME280;74090;46.796;9.822;2023-11-21T11:11:31;83881.00;;;13.20;21.94
36512;BME280;74090;46.796;9.822;2023-11-21T11:13:59;83881.45;;;13.59;21.40
36512;BME280;74090;46.796;9.822;2023-11-21T11:16:28;83883.68;;;13.92;21.35
36512;BME280;74090;46.796;9.822;2023-11-21T11:18:55;83883.16;;;13.53;21.39
36512;BME280;74090;46.796;9.822;2023-11-21T11:21:33;83881.24;;;13.37;21.30
36512;BME280;74090;46.796;9.822;2023-11-21T11:24:16;83875.24;;;14.28;20.99
36512;BME280;74090;46.796;9.822;2023-11-21T11:26:53;83872.39;;;14.32;21.10
36512;BME280;74090;46.796;9.822;2023-11-21T11:29:30;83873.60;;;14.08;20.91
36512;BME280;74090;46.796;9.822;2023-11-21T11:32:09;83871.67;;;14.59;20.60
36512;BME280;74090;46.796;9.822;2023-11-21T11:34:44;83877.19;;;14.66;20.55
36512;BME280;74090;46.796;9.822;2023-11-21T11:37:14;83868.79;;;14.55;20.56
36512;BME280;74090;46.796;9.822;2023-11-21T11:39:42;83865.38;;;14.65;20.29
36512;BME280;74090;46.796;9.822;2023-11-21T11:42:13;83869.46;;;14.65;20.34
36512;BME280;74090;46.796;9.822;2023-11-21T11:44:51;83870.02;;;15.20;20.34
36512;BME280;74090;46.796;9.822;2023-11-21T11:47:24;83865.47;;;14.12;20.47
36512;BME280;74090;46.796;9.822;2023-11-21T11:49:57;83866.00;;;14.80;20.25
36512;BME280;74090;46.796;9.822;2023-11-21T11:52:43;83861.11;;;14.86;20.19
36512;BME280;74090;46.796;9.822;2023-11-21T11:55:13;83860.73;;;14.36;20.24
36512;BME280;74090;46.796;9.822;2023-11-21T11:57:47;83859.67;;;14.85;19.88
36512;BME280;74090;46.796;9.822;2023-11-21T12:00:17;83859.69;;;14.86;19.74
36512;BME280;74090;46.796;9.822;2023-11-21T12:02:46;83856.96;;;15.31;19.58
36512;BME280;74090;46.796;9.822;2023-11-21T12:05:15;83858.20;;;15.71;19.36
36512;BME280;74090;46.796;9.822;2023-11-21T12:07:45;83858.31;;;15.50;19.49
36512;BME280;74090;46.796;9.822;2023-11-21T12:10:16;83858.00;;;14.18;19.70
36512;BME280;74090;46.796;9.822;2023-11-21T12:12:46;83856.43;;;14.96;19.55
36512;BME280;74090;46.796;9.822;2023-11-21T12:15:16;83856.32;;;13.91;20.08
36512;BME280;74090;46.796;9.822;2023-11-21T12:17:45;83856.70;;;14.03;19.95
36512;BME280;74090;46.796;9.822;2023-11-21T12:20:14;83858.92;;;14.82;20.01
36512;BME280;74090;46.796;9.822;2023-11-21T12:22:43;83855.84;;;14.55;19.79
36512;BME280;74090;46.796;9.822;2023-11-21T12:25:11;83852.11;;;14.25;20.07
36512;BME280;74090;46.796;9.822;2023-11-21T12:27:39;83852.19;;;14.26;20.27
36512;BME280;74090;46.796;9.822;2023-11-21T12:30:07;83854.86;;;14.97;19.89
36512;BME280;74090;46.796;9.822;2023-11-21T12:32:36;83855.13;;;16.42;19.32
36512;BME280;74090;46.796;9.822;2023-11-21T12:35:05;83852.99;;;14.97;19.71
36512;BME280;74090;46.796;9.822;2023-11-21T12:37:34;83854.09;;;14.42;19.55
36512;BME280;74090;46.796;9.822;2023-11-21T12:40:01;83851.61;;;14.47;19.59
36512;BME280;74090;46.796;9.822;2023-11-21T12:42:28;83850.14;;;14.90;19.67
36512;BME280;74090;46.796;9.822;2023-11-21T12:45:20;83851.28;;;15.23;19.55
36512;BME280;74090;46.796;9.822;2023-11-21T12:47:49;83856.82;;;14.29;19.86
36512;BME280;74090;46.796;9.822;2023-11-21T12:50:19;83861.69;;;14.40;19.82
36512;BME280;74090;46.796;9.822;2023-11-21T12:52:47;83865.30;;;15.11;19.65
36512;BME280;74090;46.796;9.822;2023-11-21T12:55:16;83869.34;;;14.86;20.14
36512;BME280;74090;46.796;9.822;2023-11-21T12:57:45;83872.28;;;14.83;20.20
36512;BME280;74090;46.796;9.822;2023-11-21T13:00:13;83874.66;;;13.69;20.40
36512;BME280;74090;46.796;9.822;2023-11-21T13:02:51;83880.35;;;15.13;20.10
36512;BME280;74090;46.796;9.822;2023-11-21T13:05:24;83882.68;;;14.26;20.43